sensor_id;sensor_type;location;lat;lon;timestamp;pressure;altitude;pressure_sealevel;temperature;humidity
56721;BME280;53183;47.412;18.884;2023-04-01T00:01:49;97897.66;;;7.95;100.00
56721;BME280;53183;47.412;18.884;2023-04-01T00:04:17;97897.78;;;8.07;100.00
56721;BME280;53183;47.412;18.884;2023-04-01T00:06:45;97894.59;;;8.02;100.00
56721;BME280;53183;47.412;18.884;2023-04-01T00:09:12;97889.97;;;8.05;100.00
56721;BME280;53183;47.412;18.884;2023-04-01T00:11:39;97887.53;;;8.02;100.00
56721;BME280;53183;47.412;18.884;2023-04-01T00:14:07;97893.75;;;8.01;100.00
56721;BME280;53183;47.412;18.884;2023-04-01T00:16:34;97895.66;;;7.99;100.00
56721;BME280;53183;47.412;18.884;2023-04-01T00:19:02;97888.91;;;7.95;100.00
56721;BME280;53183;47.412;18.884;2023-04-01T00:21:29;97889.13;;;7.92;100.00
56721;BME280;53183;47.412;18.884;2023-04-01T00:23:56;97890.09;;;7.91;100.00
56721;BME280;53183;47.412;18.884;2023-04-01T00:26:25;97889.53;;;7.98;100.00
56721;BME280;53183;47.412;18.884;2023-04-01T00:28:52;97892.19;;;7.98;100.00
56721;BME280;53183;47.412;18.884;2023-04-01T00:31:19;97887.88;;;7.97;100.00
56721;BME280;53183;47.412;18.884;2023-04-01T00:33:47;97883.56;;;7.96;100.00
56721;BME280;53183;47.412;18.884;2023-04-01T00:36:20;97888.16;;;7.93;100.00
56721;BME280;53183;47.412;18.884;2023-04-01T00:38:49;97878.59;;;7.92;100.00
56721;BME280;53183;47.412;18.884;2023-04-01T00:41:18;97876.72;;;7.94;100.00
56721;BME280;53183;47.412;18.884;2023-04-01T00:43:48;97880.72;;;7.99;100.00
56721;BME280;53183;47.412;18.884;2023-04-01T00:46:17;97883.66;;;8.08;100.00
56721;BME280;53183;47.412;18.884;2023-04-01T00:48:48;97877.22;;;7.99;100.00
56721;BME280;53183;47.412;18.884;2023-04-01T00:51:20;97884.06;;;8.02;100.00
56721;BME280;53183;47.412;18.884;2023-04-01T00:53:51;97882.50;;;7.99;100.00
56721;BME280;53183;47.412;18.884;2023-04-01T00:56:25;97879.88;;;7.99;100.00
56721;BME280;53183;47.412;18.884;2023-04-01T00:59:09;97883.25;;;8.01;100.00
56721;BME280;53183;47.412;18.884;2023-04-01T01:01:38;97885.25;;;7.97;100.00
56721;BME280;53183;47.412;18.884;2023-04-01T01:04:05;97885.88;;;8.01;100.00
56721;BME280;53183;47.412;18.884;2023-04-01T01:12:23;97892.38;;;7.95;100.00
56721;BME280;53183;47.412;18.884;2023-04-01T01:23:28;97872.72;;;7.88;100.00
56721;BME280;53183;47.412;18.884;2023-04-01T01:34:29;97871.66;;;7.91;100.00
56721;BME280;53183;47.412;18.884;2023-04-01T01:37:05;97870.50;;;7.95;100.00
56721;BME280;53183;47.412;18.884;2023-04-01T01:39:37;97869.56;;;7.83;100.00
56721;BME280;53183;47.412;18.884;2023-04-01T01:42:07;97866.53;;;7.77;100.00
56721;BME280;53183;47.412;18.884;2023-04-01T01:44:38;97862.62;;;7.82;100.00
56721;BME280;53183;47.412;18.884;2023-04-01T01:47:06;97859.16;;;7.82;100.00
56721;BME280;53183;47.412;18.884;2023-04-01T01:49:34;97860.94;;;7.81;100.00
56721;BME280;53183;47.412;18.884;2023-04-01T01:52:02;97868.63;;;7.71;100.00
56721;BME280;53183;47.412;18.884;2023-04-01T01:54:30;97861.56;;;7.72;100.00
56721;BME280;53183;47.412;18.884;2023-04-01T01:57:08;97865.56;;;7.78;100.00
56721;BME280;53183;47.412;18.884;2023-04-01T01:59:38;97859.87;;;7.71;100.00
56721;BME280;53183;47.412;18.884;2023-04-01T02:02:08;97855.69;;;7.81;100.00
56721;BME280;53183;47.412;18.884;2023-04-01T02:04:39;97860.72;;;7.84;100.00
56721;BME280;53183;47.412;18.884;2023-04-01T02:07:10;97854.72;;;7.82;100.00
56721;BME280;53183;47.412;18.884;2023-04-01T02:09:40;97854.53;;;7.85;100.00
56721;BME280;53183;47.412;18.884;2023-04-01T02:12:09;97855.34;;;7.86;100.00
56721;BME280;53183;47.412;18.884;2023-04-01T02:14:57;97851.87;;;7.85;100.00
56721;BME280;53183;47.412;18.884;2023-04-01T02:17:29;97851.81;;;7.87;100.00
56721;BME280;53183;47.412;18.884;2023-04-01T02:20:00;97851.34;;;7.93;100.00
56721;BME280;53183;47.412;18.884;2023-04-01T02:22:34;97849.47;;;7.95;100.00
56721;BME280;53183;47.412;18.884;2023-04-01T02:25:18;97842.19;;;7.98;100.00
56721;BME280;53183;47.412;18.884;2023-04-01T02:27:46;97843.16;;;7.97;100.00
56721;BME280;53183;47.412;18.884;2023-04-01T02:30:15;97842.19;;;7.98;100.00
56721;BME280;53183;47.412;18.884;2023-04-01T02:32:43;97845.16;;;7.94;100.00
56721;BME280;53183;47.412;18.884;2023-04-01T02:35:13;97834.09;;;7.89;100.00
56721;BME280;53183;47.412;18.884;2023-04-01T02:37:41;97830.13;;;7.83;100.00
56721;BME280;53183;47.412;18.884;2023-04-01T02:40:13;97838.31;;;7.79;100.00
56721;BME280;53183;47.412;18.884;2023-04-01T02:42:41;97835.47;;;7.82;100.00
56721;BME280;53183;47.412;18.884;2023-04-01T02:45:09;97836.66;;;7.78;100.00
56721;BME280;53183;47.412;18.884;2023-04-01T02:47:37;97838.22;;;7.67;100.00
56721;BME280;53183;47.412;18.884;2023-04-01T02:50:05;97836.97;;;7.60;100.00
56721;BME280;53183;47.412;18.884;2023-04-01T02:52:32;97834.22;;;7.62;100.00
56721;BME280;53183;47.412;18.884;2023-04-01T02:55:00;97843.28;;;7.58;100.00
56721;BME280;53183;47.412;18.884;2023-04-01T02:57:28;97838.44;;;7.64;100.00
56721;BME280;53183;47.412;18.884;2023-04-01T02:59:56;97837.81;;;7.61;100.00
56721;BME280;53183;47.412;18.884;2023-04-01T03:02:23;97842.09;;;7.62;100.00
56721;BME280;53183;47.412;18.884;2023-04-01T03:04:50;97845.69;;;7.61;100.00
56721;BME280;53183;47.412;18.884;2023-04-01T03:07:17;97841.81;;;7.54;100.00
56721;BME280;53183;47.412;18.884;2023-04-01T03:09:45;97833.81;;;7.55;100.00
56721;BME280;53183;47.412;18.884;2023-04-01T03:12:12;97827.28;;;7.61;100.00
56721;BME280;53183;47.412;18.884;2023-04-01T03:14:39;97838.63;;;7.61;100.00
56721;BME280;53183;47.412;18.884;2023-04-01T03:17:07;97838.31;;;7.53;100.00
56721;BME280;53183;47.412;18.884;2023-04-01T03:19:34;97839.78;;;7.44;100.00
56721;BME280;53183;47.412;18.884;2023-04-01T03:22:03;97851.97;;;7.45;100.00
56721;BME280;53183;47.412;18.884;2023-04-01T03:24:31;97853.63;;;7.34;100.00
56721;BME280;53183;47.412;18.884;2023-04-01T03:26:58;97854.97;;;7.26;100.00
56721;BME280;53183;47.412;18.884;2023-04-01T03:29:26;97845.31;;;7.14;100.00
56721;BME280;53183;47.412;18.884;2023-04-01T03:31:53;97857.44;;;7.02;100.00
56721;BME280;53183;47.412;18.884;2023-04-01T03:34:20;97853.78;;;7.05;100.00
56721;BME280;53183;47.412;18.884;2023-04-01T03:36:47;97861.63;;;6.92;100.00
56721;BME280;53183;47.412;18.884;2023-04-01T03:39:15;97859.37;;;6.86;100.00
56721;BME280;53183;47.412;18.884;2023-04-01T03:41:45;97857.34;;;6.77;100.00
56721;BME280;53183;47.412;18.884;2023-04-01T03:44:13;97860.94;;;6.76;100.00
56721;BME280;53183;47.412;18.884;2023-04-01T03:46:41;97869.19;;;6.70;100.00
56721;BME280;53183;47.412;18.884;2023-04-01T03:49:10;97865.94;;;6.66;100.00
56721;BME280;53183;47.412;18.884;2023-04-01T03:51:43;97866.31;;;6.60;100.00
56721;BME280;53183;47.412;18.884;2023-04-01T03:54:10;97875.97;;;6.60;100.00
56721;BME280;53183;47.412;18.884;2023-04-01T03:56:38;97877.50;;;6.49;100.00
56721;BME280;53183;47.412;18.884;2023-04-01T03:59:07;97863.91;;;6.43;100.00
56721;BME280;53183;47.412;18.884;2023-04-01T04:01:35;97864.88;;;6.42;100.00
56721;BME280;53183;47.412;18.884;2023-04-01T04:04:02;97870.47;;;6.50;100.00
56721;BME280;53183;47.412;18.884;2023-04-01T04:06:30;97868.03;;;6.47;100.00
56721;BME280;53183;47.412;18.884;2023-04-01T04:08:57;97868.97;;;6.46;100.00
56721;BME280;53183;47.412;18.884;2023-04-01T04:11:25;97868.50;;;6.53;100.00
56721;BME280;53183;47.412;18.884;2023-04-01T04:13:52;97870.97;;;6.69;100.00
56721;BME280;53183;47.412;18.884;2023-04-01T04:16:22;97873.50;;;6.71;100.00
56721;BME280;53183;47.412;18.884;2023-04-01T04:18:50;97870.78;;;6.72;100.00
56721;BME280;53183;47.412;18.884;2023-04-01T04:21:18;97874.13;;;6.74;100.00
56721;BME280;53183;47.412;18.884;2023-04-01T04:23:45;97881.28;;;6.72;100.00
56721;BME280;53183;47.412;18.884;2023-04-01T04:26:14;97870.16;;;6.69;100.00
56721;BME280;53183;47.412;18.884;2023-04-01T04:28:43;97869.69;;;6.62;100.00
56721;BME280;53183;47.412;18.884;2023-04-01T04:31:11;97869.78;;;6.61;100.00
56721;BME280;53183;47.412;18.884;2023-04-01T04:33:42;97870.34;;;6.66;100.00
56721;BME280;53183;47.412;18.884;2023-04-01T04:36:09;97873.03;;;6.64;100.00
56721;BME280;53183;47.412;18.884;2023-04-01T04:38:36;97861.31;;;6.70;100.00
56721;BME280;53183;47.412;18.884;2023-04-01T04:41:09;97866.37;;;6.73;100.00
56721;BME280;53183;47.412;18.884;2023-04-01T04:43:36;97865.22;;;6.77;100.00
56721;BME280;53183;47.412;18.884;2023-04-01T04:46:10;97858.75;;;6.82;100.00
56721;BME280;53183;47.412;18.884;2023-04-01T04:48:38;97862.91;;;6.99;100.00
56721;BME280;53183;47.412;18.884;2023-04-01T04:51:05;97866.97;;;7.18;100.00
56721;BME280;53183;47.412;18.884;2023-04-01T04:53:32;97864.03;;;7.22;100.00
56721;BME280;53183;47.412;18.884;2023-04-01T04:55:59;97870.03;;;7.24;100.00
56721;BME280;53183;47.412;18.884;2023-04-01T04:58:27;97877.00;;;7.38;100.00
56721;BME280;53183;47.412;18.884;2023-04-01T05:00:55;97874.91;;;7.56;100.00
56721;BME280;53183;47.412;18.884;2023-04-01T05:03:23;97870.09;;;7.88;100.00
56721;BME280;53183;47.412;18.884;2023-04-01T05:05:52;97869.56;;;7.96;100.00
56721;BME280;53183;47.412;18.884;2023-04-01T05:08:20;97865.88;;;8.11;100.00
56721;BME280;53183;47.412;18.884;2023-04-01T05:10:47;97869.53;;;8.21;100.00
56721;BME280;53183;47.412;18.884;2023-04-01T05:13:14;97865.44;;;8.43;100.00
56721;BME280;53183;47.412;18.884;2023-04-01T05:15:42;97863.72;;;8.42;100.00
56721;BME280;53183;47.412;18.884;2023-04-01T05:18:09;97859.37;;;8.66;100.00
56721;BME280;53183;47.412;18.884;2023-04-01T05:20:37;97867.09;;;8.81;100.00
56721;BME280;53183;47.412;18.884;2023-04-01T05:23:04;97864.84;;;8.87;100.00
56721;BME280;53183;47.412;18.884;2023-04-01T05:25:31;97873.81;;;8.85;100.00
56721;BME280;53183;47.412;18.884;2023-04-01T05:27:59;97874.50;;;9.00;100.00
56721;BME280;53183;47.412;18.884;2023-04-01T05:30:26;97874.37;;;9.01;100.00
56721;BME280;53183;47.412;18.884;2023-04-01T05:32:54;97877.56;;;9.18;100.00
56721;BME280;53183;47.412;18.884;2023-04-01T05:35:21;97883.34;;;9.23;100.00
56721;BME280;53183;47.412;18.884;2023-04-01T05:37:49;97881.19;;;9.28;100.00
56721;BME280;53183;47.412;18.884;2023-04-01T05:40:17;97884.31;;;9.22;100.00
56721;BME280;53183;47.412;18.884;2023-04-01T05:42:44;97885.19;;;9.33;100.00
56721;BME280;53183;47.412;18.884;2023-04-01T05:45:14;97884.72;;;9.28;100.00
56721;BME280;53183;47.412;18.884;2023-04-01T05:47:44;97877.44;;;9.43;100.00
56721;BME280;53183;47.412;18.884;2023-04-01T05:50:11;97877.22;;;9.57;99.51
56721;BME280;53183;47.412;18.884;2023-04-01T05:52:39;97878.34;;;9.66;98.66
56721;BME280;53183;47.412;18.884;2023-04-01T05:55:07;97885.78;;;9.72;98.90
56721;BME280;53183;47.412;18.884;2023-04-01T05:57:34;97886.91;;;9.81;98.27
56721;BME280;53183;47.412;18.884;2023-04-01T06:00:04;97889.91;;;9.88;97.12
56721;BME280;53183;47.412;18.884;2023-04-01T06:02:38;97880.06;;;9.78;97.52
56721;BME280;53183;47.412;18.884;2023-04-01T06:05:14;97885.41;;;9.66;98.01
56721;BME280;53183;47.412;18.884;2023-04-01T06:07:42;97875.37;;;9.71;98.74
56721;BME280;53183;47.412;18.884;2023-04-01T06:10:16;97882.00;;;9.99;97.63
56721;BME280;53183;47.412;18.884;2023-04-01T06:13:00;97880.00;;;10.14;96.04
56721;BME280;53183;47.412;18.884;2023-04-01T06:26:43;97880.78;;;10.93;90.22
56721;BME280;53183;47.412;18.884;2023-04-01T06:29:58;97882.31;;;10.95;90.48
56721;BME280;53183;47.412;18.884;2023-04-01T06:46:47;97885.22;;;11.57;86.41
56721;BME280;53183;47.412;18.884;2023-04-01T06:52:26;97893.72;;;12.23;82.57
56721;BME280;53183;47.412;18.884;2023-04-01T06:57:56;97904.69;;;12.39;80.51
56721;BME280;53183;47.412;18.884;2023-04-01T07:00:32;97904.47;;;12.22;81.05
56721;BME280;53183;47.412;18.884;2023-04-01T07:05:49;97899.81;;;12.85;77.61
56721;BME280;53183;47.412;18.884;2023-04-01T07:08:22;97894.75;;;13.42;76.23
56721;BME280;53183;47.412;18.884;2023-04-01T07:10:57;97892.53;;;13.37;75.48
56721;BME280;53183;47.412;18.884;2023-04-01T07:13:44;97893.00;;;13.02;77.09
56721;BME280;53183;47.412;18.884;2023-04-01T07:16:34;97897.00;;;13.56;76.52
56721;BME280;53183;47.412;18.884;2023-04-01T07:19:12;97898.63;;;14.05;74.22
56721;BME280;53183;47.412;18.884;2023-04-01T07:21:53;97895.97;;;14.52;73.00
56721;BME280;53183;47.412;18.884;2023-04-01T07:24:31;97893.12;;;14.91;71.28
56721;BME280;53183;47.412;18.884;2023-04-01T07:27:00;97893.78;;;14.93;70.04
56721;BME280;53183;47.412;18.884;2023-04-01T07:29:29;97892.00;;;14.94;71.81
56721;BME280;53183;47.412;18.884;2023-04-01T07:32:14;97892.00;;;14.94;70.27
56721;BME280;53183;47.412;18.884;2023-04-01T07:34:56;97894.53;;;15.31;67.96
56721;BME280;53183;47.412;18.884;2023-04-01T07:37:47;97891.97;;;15.75;66.70
56721;BME280;53183;47.412;18.884;2023-04-01T07:40:26;97895.88;;;15.89;66.03
56721;BME280;53183;47.412;18.884;2023-04-01T07:48:36;97892.94;;;14.75;63.48
56721;BME280;53183;47.412;18.884;2023-04-01T07:51:15;97889.00;;;14.51;63.47
56721;BME280;53183;47.412;18.884;2023-04-01T07:59:10;97896.69;;;13.78;66.95
56721;BME280;53183;47.412;18.884;2023-04-01T08:07:31;97909.97;;;13.78;67.65
56721;BME280;53183;47.412;18.884;2023-04-01T08:16:08;97895.56;;;13.71;70.59
56721;BME280;53183;47.412;18.884;2023-04-01T08:21:27;97896.28;;;13.73;71.01
56721;BME280;53183;47.412;18.884;2023-04-01T08:23:57;97904.69;;;13.49;71.61
56721;BME280;53183;47.412;18.884;2023-04-01T08:28:58;97909.16;;;13.29;72.96
56721;BME280;53183;47.412;18.884;2023-04-01T08:31:38;97907.00;;;13.13;71.92
56721;BME280;53183;47.412;18.884;2023-04-01T08:34:30;97914.69;;;13.17;71.38
56721;BME280;53183;47.412;18.884;2023-04-01T08:39:42;97912.25;;;12.94;71.49
56721;BME280;53183;47.412;18.884;2023-04-01T08:45:07;97900.91;;;13.42;70.04
56721;BME280;53183;47.412;18.884;2023-04-01T08:47:45;97908.16;;;13.79;66.00
56721;BME280;53183;47.412;18.884;2023-04-01T08:53:40;97911.22;;;13.55;69.68
56721;BME280;53183;47.412;18.884;2023-04-01T08:56:23;97909.94;;;13.98;66.61
56721;BME280;53183;47.412;18.884;2023-04-01T08:59:37;97906.84;;;14.12;65.86
56721;BME280;53183;47.412;18.884;2023-04-01T09:07:52;97891.88;;;14.11;67.99
56721;BME280;53183;47.412;18.884;2023-04-01T09:10:49;97896.78;;;14.06;70.14
56721;BME280;53183;47.412;18.884;2023-04-01T09:16:13;97910.50;;;14.48;68.27
56721;BME280;53183;47.412;18.884;2023-04-01T09:29:29;97902.38;;;14.50;66.23
56721;BME280;53183;47.412;18.884;2023-04-01T09:34:52;97888.88;;;14.34;64.28
56721;BME280;53183;47.412;18.884;2023-04-01T09:37:36;97884.16;;;14.65;64.95
56721;BME280;53183;47.412;18.884;2023-04-01T09:40:23;97880.47;;;14.75;62.81
56721;BME280;53183;47.412;18.884;2023-04-01T09:46:07;97895.66;;;14.18;63.89
56721;BME280;53183;47.412;18.884;2023-04-01T09:49:00;97902.28;;;13.75;65.82
56721;BME280;53183;47.412;18.884;2023-04-01T09:57:16;97896.84;;;13.57;67.80
56721;BME280;53183;47.412;18.884;2023-04-01T10:03:20;97902.44;;;13.74;65.76
56721;BME280;53183;47.412;18.884;2023-04-01T10:20:07;97914.59;;;13.57;66.99
56721;BME280;53183;47.412;18.884;2023-04-01T10:32:09;97917.69;;;13.52;67.47
56721;BME280;53183;47.412;18.884;2023-04-01T10:34:19;97913.28;;;14.00;65.63
56721;BME280;53183;47.412;18.884;2023-04-01T10:36:57;97908.97;;;14.08;65.85
56721;BME280;53183;47.412;18.884;2023-04-01T10:45:42;97902.84;;;14.36;62.65
56721;BME280;53183;47.412;18.884;2023-04-01T10:56:39;97903.16;;;14.70;61.40
56721;BME280;53183;47.412;18.884;2023-04-01T11:08:14;97889.25;;;14.58;64.39
56721;BME280;53183;47.412;18.884;2023-04-01T11:25:20;97905.78;;;15.43;59.15
56721;BME280;53183;47.412;18.884;2023-04-01T11:28:07;97894.66;;;15.65;57.88
56721;BME280;53183;47.412;18.884;2023-04-01T11:31:22;97892.03;;;15.83;57.66
56721;BME280;53183;47.412;18.884;2023-04-01T11:37:03;97888.31;;;16.02;57.67
56721;BME280;53183;47.412;18.884;2023-04-01T11:40:12;97895.59;;;16.18;56.42
56721;BME280;53183;47.412;18.884;2023-04-01T11:45:37;97904.53;;;15.83;57.21
56721;BME280;53183;47.412;18.884;2023-04-01T12:11:07;97904.97;;;14.97;59.18
56721;BME280;53183;47.412;18.884;2023-04-01T12:13:16;97909.62;;;15.13;59.83
56721;BME280;53183;47.412;18.884;2023-04-01T12:40:31;97912.37;;;14.75;59.45
56721;BME280;53183;47.412;18.884;2023-04-01T12:46:15;97915.41;;;14.53;58.67
56721;BME280;53183;47.412;18.884;2023-04-01T12:52:14;97918.38;;;14.30;62.50
56721;BME280;53183;47.412;18.884;2023-04-01T13:23:07;97905.09;;;15.23;59.61
56721;BME280;53183;47.412;18.884;2023-04-01T13:34:56;97903.41;;;15.40;56.93
56721;BME280;53183;47.412;18.884;2023-04-01T13:37:52;97905.03;;;15.33;58.31
56721;BME280;53183;47.412;18.884;2023-04-01T13:43:04;97904.78;;;14.81;58.90
56721;BME280;53183;47.412;18.884;2023-04-01T13:48:29;97921.28;;;14.47;61.03
56721;BME280;53183;47.412;18.884;2023-04-01T13:56:20;97920.75;;;13.77;61.27
56721;BME280;53183;47.412;18.884;2023-04-01T13:58:57;97928.00;;;13.65;62.37
56721;BME280;53183;47.412;18.884;2023-04-01T14:12:34;97930.56;;;12.97;69.97
56721;BME280;53183;47.412;18.884;2023-04-01T14:15:25;97927.59;;;12.90;70.20
56721;BME280;53183;47.412;18.884;2023-04-01T14:23:58;97912.66;;;12.89;67.92
56721;BME280;53183;47.412;18.884;2023-04-01T14:26:54;97910.25;;;12.67;68.96
56721;BME280;53183;47.412;18.884;2023-04-01T14:38:26;97900.50;;;13.37;65.28
56721;BME280;53183;47.412;18.884;2023-04-01T14:52:33;97907.16;;;14.56;60.08
56721;BME280;53183;47.412;18.884;2023-04-01T14:55:19;97904.94;;;14.51;60.61
56721;BME280;53183;47.412;18.884;2023-04-01T15:03:24;97888.50;;;14.19;61.50
56721;BME280;53183;47.412;18.884;2023-04-01T15:08:45;97888.94;;;14.14;62.74
56721;BME280;53183;47.412;18.884;2023-04-01T15:18:18;97894.06;;;14.35;62.07
56721;BME280;53183;47.412;18.884;2023-04-01T15:31:46;97899.00;;;14.11;63.93
56721;BME280;53183;47.412;18.884;2023-04-01T15:48:24;97916.44;;;14.32;56.67
56721;BME280;53183;47.412;18.884;2023-04-01T15:51:14;97915.03;;;14.38;56.28
56721;BME280;53183;47.412;18.884;2023-04-01T15:59:31;97923.19;;;14.17;57.07
56721;BME280;53183;47.412;18.884;2023-04-01T16:02:13;97916.41;;;13.95;57.79
56721;BME280;53183;47.412;18.884;2023-04-01T16:07:48;97930.06;;;14.10;58.20
56721;BME280;53183;47.412;18.884;2023-04-01T16:10:49;97930.75;;;14.12;58.14
56721;BME280;53183;47.412;18.884;2023-04-01T16:13:22;97938.03;;;14.10;57.53
56721;BME280;53183;47.412;18.884;2023-04-01T16:18:53;97927.94;;;14.14;57.93
56721;BME280;53183;47.412;18.884;2023-04-01T16:27:02;97939.16;;;13.88;58.83
56721;BME280;53183;47.412;18.884;2023-04-01T16:29:44;97941.81;;;13.78;58.72
56721;BME280;53183;47.412;18.884;2023-04-01T16:32:31;97934.56;;;13.61;58.74
56721;BME280;53183;47.412;18.884;2023-04-01T16:38:15;97937.22;;;13.51;59.12
56721;BME280;53183;47.412;18.884;2023-04-01T16:51:19;97952.50;;;13.19;60.01
56721;BME280;53183;47.412;18.884;2023-04-01T16:53:52;97956.25;;;13.16;60.73
56721;BME280;53183;47.412;18.884;2023-04-01T16:56:39;97951.34;;;13.02;61.93
56721;BME280;53183;47.412;18.884;2023-04-01T16:59:21;97950.50;;;12.91;61.87
56721;BME280;53183;47.412;18.884;2023-04-01T17:02:11;97958.00;;;12.77;62.65
56721;BME280;53183;47.412;18.884;2023-04-01T17:04:44;97958.06;;;12.65;62.87
56721;BME280;53183;47.412;18.884;2023-04-01T17:10:25;97966.37;;;12.51;63.59
56721;BME280;53183;47.412;18.884;2023-04-01T17:13:24;97969.62;;;12.34;64.53
56721;BME280;53183;47.412;18.884;2023-04-01T17:35:34;97985.91;;;11.44;67.79
56721;BME280;53183;47.412;18.884;2023-04-01T17:40:54;97992.31;;;11.30;68.40
56721;BME280;53183;47.412;18.884;2023-04-01T17:48:49;98000.75;;;11.24;68.25
56721;BME280;53183;47.412;18.884;2023-04-01T17:51:41;98001.47;;;11.15;69.10
56721;BME280;53183;47.412;18.884;2023-04-01T18:03:27;98010.88;;;10.85;70.17
56721;BME280;53183;47.412;18.884;2023-04-01T18:10:55;98025.66;;;10.76;72.07
56721;BME280;53183;47.412;18.884;2023-04-01T18:16:28;98027.69;;;10.62;72.81
56721;BME280;53183;47.412;18.884;2023-04-01T18:19:08;98038.25;;;10.62;73.20
56721;BME280;53183;47.412;18.884;2023-04-01T18:22:15;98040.66;;;10.53;73.98
56721;BME280;53183;47.412;18.884;2023-04-01T18:24:33;98044.72;;;10.46;74.45
56721;BME280;53183;47.412;18.884;2023-04-01T18:29:48;98057.16;;;10.33;74.93
56721;BME280;53183;47.412;18.884;2023-04-01T18:32:37;98061.12;;;10.27;75.60
56721;BME280;53183;47.412;18.884;2023-04-01T18:35:44;98061.53;;;10.21;76.03
56721;BME280;53183;47.412;18.884;2023-04-01T18:38:18;98069.31;;;10.12;76.83
56721;BME280;53183;47.412;18.884;2023-04-01T18:41:06;98070.50;;;10.07;77.53
56721;BME280;53183;47.412;18.884;2023-04-01T18:51:51;98080.37;;;9.93;79.15
56721;BME280;53183;47.412;18.884;2023-04-01T18:54:42;98078.81;;;9.90;79.81
56721;BME280;53183;47.412;18.884;2023-04-01T18:57:14;98087.06;;;9.85;79.93
56721;BME280;53183;47.412;18.884;2023-04-01T18:59:53;98080.22;;;9.83;79.90
56721;BME280;53183;47.412;18.884;2023-04-01T19:02:40;98077.78;;;9.80;80.15
56721;BME280;53183;47.412;18.884;2023-04-01T19:05:18;98083.06;;;9.80;80.09
56721;BME280;53183;47.412;18.884;2023-04-01T19:07:52;98086.28;;;9.72;80.80
56721;BME280;53183;47.412;18.884;2023-04-01T19:13:18;98091.50;;;9.61;81.61
56721;BME280;53183;47.412;18.884;2023-04-01T19:16:00;98091.09;;;9.54;81.69
56721;BME280;53183;47.412;18.884;2023-04-01T19:27:29;98078.44;;;9.47;83.01
56721;BME280;53183;47.412;18.884;2023-04-01T19:38:20;98085.31;;;9.49;83.60
56721;BME280;53183;47.412;18.884;2023-04-01T19:40:54;98088.47;;;9.54;83.85
56721;BME280;53183;47.412;18.884;2023-04-01T19:43:50;98093.09;;;9.51;84.65
56721;BME280;53183;47.412;18.884;2023-04-01T19:46:30;98097.94;;;9.57;83.90
56721;BME280;53183;47.412;18.884;2023-04-01T19:59:49;98099.66;;;9.45;85.66
56721;BME280;53183;47.412;18.884;2023-04-01T20:04:51;98102.31;;;9.32;86.24
56721;BME280;53183;47.412;18.884;2023-04-01T20:07:39;98103.16;;;9.33;85.73
56721;BME280;53183;47.412;18.884;2023-04-01T20:10:22;98108.16;;;9.25;86.26
56721;BME280;53183;47.412;18.884;2023-04-01T20:16:14;98101.78;;;9.27;85.94
56721;BME280;53183;47.412;18.884;2023-04-01T20:18:51;98106.34;;;9.25;86.36
56721;BME280;53183;47.412;18.884;2023-04-01T20:21:42;98108.31;;;9.34;86.12
56721;BME280;53183;47.412;18.884;2023-04-01T20:26:49;98104.56;;;9.13;86.65
56721;BME280;53183;47.412;18.884;2023-04-01T20:32:10;98112.81;;;8.96;88.37
56721;BME280;53183;47.412;18.884;2023-04-01T20:38:06;98116.16;;;9.10;87.73
56721;BME280;53183;47.412;18.884;2023-04-01T20:41:03;98127.13;;;9.17;87.57
56721;BME280;53183;47.412;18.884;2023-04-01T20:44:13;98127.34;;;9.14;87.23
56721;BME280;53183;47.412;18.884;2023-04-01T20:52:39;98132.94;;;9.09;82.97
56721;BME280;53183;47.412;18.884;2023-04-01T20:56:01;98127.66;;;9.22;81.16
56721;BME280;53183;47.412;18.884;2023-04-01T21:01:54;98133.69;;;9.11;81.13
56721;BME280;53183;47.412;18.884;2023-04-01T21:15:26;98144.00;;;8.89;81.72
56721;BME280;53183;47.412;18.884;2023-04-01T21:21:03;98141.16;;;8.92;81.37
56721;BME280;53183;47.412;18.884;2023-04-01T21:26:50;98143.59;;;8.95;81.63
56721;BME280;53183;47.412;18.884;2023-04-01T21:32:10;98141.59;;;8.86;82.48
56721;BME280;53183;47.412;18.884;2023-04-01T22:09:10;98174.81;;;8.21;88.04
56721;BME280;53183;47.412;18.884;2023-04-01T22:14:42;98167.03;;;8.20;88.13
56721;BME280;53183;47.412;18.884;2023-04-01T22:17:26;98171.87;;;8.26;88.34
56721;BME280;53183;47.412;18.884;2023-04-01T22:25:45;98162.41;;;8.23;88.79
56721;BME280;53183;47.412;18.884;2023-04-01T22:28:25;98168.09;;;8.30;88.65
56721;BME280;53183;47.412;18.884;2023-04-01T22:31:00;98163.63;;;8.18;89.63
56721;BME280;53183;47.412;18.884;2023-04-01T22:42:12;98172.50;;;8.03;90.54
56721;BME280;53183;47.412;18.884;2023-04-01T22:44:57;98173.06;;;8.08;90.35
56721;BME280;53183;47.412;18.884;2023-04-01T22:56:15;98191.47;;;7.81;92.64
56721;BME280;53183;47.412;18.884;2023-04-01T22:59:08;98202.63;;;7.84;92.79
56721;BME280;53183;47.412;18.884;2023-04-01T23:01:44;98205.28;;;7.84;93.19
56721;BME280;53183;47.412;18.884;2023-04-01T23:04:19;98214.75;;;7.72;93.85
56721;BME280;53183;47.412;18.884;2023-04-01T23:06:51;98214.56;;;7.75;93.55
56721;BME280;53183;47.412;18.884;2023-04-01T23:09:23;98213.53;;;7.78;93.66
56721;BME280;53183;47.412;18.884;2023-04-01T23:12:00;98225.66;;;7.66;94.17
56721;BME280;53183;47.412;18.884;2023-04-01T23:14:44;98228.56;;;7.76;93.86
56721;BME280;53183;47.412;18.884;2023-04-01T23:23:23;98240.87;;;7.61;95.54
56721;BME280;53183;47.412;18.884;2023-04-01T23:26:43;98250.66;;;7.59;96.13
56721;BME280;53183;47.412;18.884;2023-04-01T23:28:54;98234.16;;;7.57;96.08
56721;BME280;53183;47.412;18.884;2023-04-01T23:31:32;98241.56;;;7.50;97.05
56721;BME280;53183;47.412;18.884;2023-04-01T23:34:03;98245.56;;;7.56;96.96
56721;BME280;53183;47.412;18.884;2023-04-01T23:36:38;98254.41;;;7.55;97.06
56721;BME280;53183;47.412;18.884;2023-04-01T23:39:19;98252.62;;;7.56;97.22